Time;durP1;ratioP1;P1;durP2;ratioP2;P2;SDS_P1;SDS_P2;PMS_P1;PMS_P2;Temp;Humidity;BMP_temperature;BMP_pressure;BME280_temperature;BME280_humidity;BME280_pressure;Samples;Min_cycle;Max_cycle;Signal;HPM_P1;HPM_P2
2022/11/05 00:10:27;;;;;;;9.48;5.55;;;9.70;99.90;;;;;;6249807;23;20015;-88
2022/11/05 00:18:23;;;;;;;11.18;5.40;;;9.70;99.90;;;;;;6249379;23;20046;-90
2022/11/05 00:20:48;;;;;;;9.30;5.10;;;9.70;99.90;;;;;;6222653;23;20004;-90
2022/11/05 00:26:02;;;;;;;11.80;5.05;;;9.80;99.90;;;;;;6249424;23;20016;-90
2022/11/05 00:28:29;;;;;;;11.10;5.47;;;9.80;99.90;;;;;;6222941;23;20099;-89
2022/11/05 00:31:10;;;;;;;8.23;4.65;;;9.80;99.90;;;;;;6249310;23;20003;-90
2022/11/05 00:33:39;;;;;;;11.02;4.60;;;9.80;99.90;;;;;;6249955;23;20000;-89
2022/11/05 00:36:08;;;;;;;9.82;5.15;;;9.90;99.90;;;;;;6223402;23;20388;-89
2022/11/05 00:38:36;;;;;;;11.40;5.57;;;9.90;99.90;;;;;;6222791;23;20062;-88
2022/11/05 00:41:02;;;;;;;11.15;5.78;;;9.90;99.90;;;;;;6222821;23;20007;-89
2022/11/05 00:46:15;;;;;;;9.13;5.50;;;9.90;99.90;;;;;;6250150;23;20019;-89
2022/11/05 00:51:27;;;;;;;7.75;4.85;;;9.90;99.90;;;;;;6226646;23;20093;-89
2022/11/05 00:53:53;;;;;;;8.27;4.72;;;9.80;99.90;;;;;;6223329;23;20000;-88
2022/11/05 00:56:19;;;;;;;7.35;4.50;;;9.80;99.90;;;;;;6198060;23;20509;-88
2022/11/05 00:58:49;;;;;;;7.57;4.38;;;9.70;99.90;;;;;;6223374;23;20028;-89
2022/11/05 01:01:17;;;;;;;11.32;5.53;;;9.70;99.90;;;;;;6224089;23;20015;-89
2022/11/05 01:03:46;;;;;;;9.02;5.00;;;9.60;99.90;;;;;;6224114;23;20103;-90
2022/11/05 01:06:17;;;;;;;9.50;4.90;;;9.60;99.90;;;;;;6242822;23;19984;-89
2022/11/05 01:08:44;;;;;;;9.00;4.93;;;9.60;99.90;;;;;;6231616;23;20048;-88
2022/11/05 01:11:31;;;;;;;9.48;5.43;;;9.50;99.90;;;;;;6216669;23;20013;-89
2022/11/05 01:14:03;;;;;;;8.07;4.97;;;9.60;99.90;;;;;;6218219;23;19997;-89
2022/11/05 01:16:29;;;;;;;9.85;4.68;;;9.50;99.90;;;;;;6244335;23;19997;-89
2022/11/05 01:18:55;;;;;;;10.50;5.65;;;9.50;99.90;;;;;;6198655;23;20001;-88
2022/11/05 01:21:21;;;;;;;11.20;5.25;;;9.50;99.90;;;;;;6193219;23;20013;-88
2022/11/05 01:23:49;;;;;;;7.72;5.10;;;9.50;99.90;;;;;;6192200;23;20129;-88
2022/11/05 01:26:15;;;;;;;10.40;5.18;;;9.50;99.90;;;;;;6191596;23;20003;-88
2022/11/05 01:28:41;;;;;;;7.35;4.90;;;9.50;99.90;;;;;;6192142;23;20004;-89
2022/11/05 01:31:06;;;;;;;11.07;5.22;;;9.40;99.90;;;;;;6191489;23;20004;-89
2022/11/05 01:33:32;;;;;;;8.95;4.88;;;9.40;99.90;;;;;;6192503;23;19997;-88
2022/11/05 01:35:58;;;;;;;8.13;4.90;;;9.40;99.90;;;;;;6192431;23;20001;-88
2022/11/05 01:38:24;;;;;;;8.88;5.13;;;9.40;99.90;;;;;;6202188;23;20074;-87
2022/11/05 01:40:50;;;;;;;8.40;4.60;;;9.40;99.90;;;;;;6203720;23;20007;-88
2022/11/05 01:43:19;;;;;;;9.52;5.40;;;9.30;99.90;;;;;;6179567;23;20043;-89
2022/11/05 01:45:48;;;;;;;9.32;4.18;;;9.30;99.90;;;;;;6192243;23;20426;-88
2022/11/05 01:48:27;;;;;;;5.25;3.95;;;9.30;99.90;;;;;;6191936;23;20001;-89
2022/11/05 01:51:15;;;;;;;9.27;4.57;;;9.30;99.90;;;;;;6217911;23;20001;-89
2022/11/05 01:53:43;;;;;;;8.32;4.55;;;9.20;99.90;;;;;;6218787;23;19998;-89
2022/11/05 01:56:16;;;;;;;6.88;4.05;;;9.20;99.90;;;;;;6191272;23;20000;-88
2022/11/05 01:58:50;;;;;;;9.45;4.43;;;9.20;99.90;;;;;;6192537;23;20001;-88
2022/11/05 02:01:16;;;;;;;8.32;4.30;;;9.20;99.90;;;;;;6191621;23;20001;-89
2022/11/05 02:03:43;;;;;;;9.50;4.97;;;9.20;99.90;;;;;;6167218;23;20013;-89
2022/11/05 02:06:12;;;;;;;6.55;4.18;;;9.20;99.90;;;;;;6191430;23;20461;-89
2022/11/05 02:08:56;;;;;;;9.13;5.25;;;9.20;99.90;;;;;;6200436;23;20096;-89
2022/11/05 02:11:22;;;;;;;12.15;6.25;;;9.10;99.90;;;;;;6216672;23;20331;-89
2022/11/05 02:13:48;;;;;;;8.32;4.68;;;9.10;99.90;;;;;;6216940;23;20008;-88
2022/11/05 02:16:25;;;;;;;9.90;4.97;;;9.10;99.90;;;;;;6216717;23;20001;-87
2022/11/05 02:19:30;;;;;;;9.70;5.18;;;9.20;99.90;;;;;;6218560;23;20028;-88
2022/11/05 02:22:35;;;;;;;8.18;4.53;;;9.10;99.90;;;;;;6141927;23;20456;-88
2022/11/05 02:25:42;;;;;;;10.38;5.15;;;9.20;99.90;;;;;;6216752;23;20001;-90
2022/11/05 02:28:35;;;;;;;7.72;4.55;;;9.20;99.90;;;;;;6215677;23;20035;-89
2022/11/05 02:31:10;;;;;;;15.48;6.38;;;9.10;99.90;;;;;;6217318;23;20004;-89
2022/11/05 02:33:55;;;;;;;8.02;4.80;;;9.10;99.90;;;;;;6217380;23;20005;-86
2022/11/05 02:36:26;;;;;;;6.60;3.92;;;9.10;99.90;;;;;;6217332;23;20419;-87
2022/11/05 02:39:14;;;;;;;7.03;3.97;;;9.10;99.90;;;;;;6216373;23;20008;-88
2022/11/05 02:42:12;;;;;;;6.68;3.45;;;9.10;99.90;;;;;;6217024;23;20024;-88
2022/11/05 02:45:04;;;;;;;8.80;4.55;;;9.10;99.90;;;;;;6217082;23;20083;-88
2022/11/05 02:47:44;;;;;;;9.52;3.95;;;9.10;99.90;;;;;;6216354;23;20116;-89
2022/11/05 02:50:15;;;;;;;8.77;3.70;;;9.10;99.90;;;;;;6216710;23;20005;-88
2022/11/05 02:53:27;;;;;;;9.40;4.30;;;9.00;99.90;;;;;;6216459;23;20088;-88
2022/11/05 02:56:00;;;;;;;;;;;9.00;99.90;;;;;;6217155;23;20005;-87
2022/11/05 02:58:29;;;;;;;7.38;4.20;;;9.00;99.90;;;;;;6215925;23;19965;-86
2022/11/05 03:00:57;;;;;;;8.05;3.58;;;9.00;99.90;;;;;;6191430;23;20484;-88
2022/11/05 03:03:59;;;;;;;6.63;3.85;;;9.00;99.90;;;;;;6217580;23;20004;-88
2022/11/05 03:06:46;;;;;;;5.72;3.17;;;9.00;99.90;;;;;;6217701;23;19997;-88
2022/11/05 03:09:40;;;;;;;11.77;3.25;;;8.90;99.90;;;;;;6215967;23;20066;-88
2022/11/05 03:13:01;;;;;;;7.05;3.03;;;8.90;99.90;;;;;;6216437;23;20089;-88
2022/11/05 03:15:45;;;;;;;8.93;3.08;;;8.80;99.90;;;;;;6125543;23;20088;-88
2022/11/05 03:18:44;;;;;;;6.20;2.90;;;8.80;99.90;;;;;;6232049;23;20004;-88
2022/11/05 03:21:19;;;;;;;7.68;3.13;;;8.80;99.90;;;;;;6216670;23;20001;-87
2022/11/05 03:23:50;;;;;;;8.18;3.30;;;8.70;99.90;;;;;;6215617;23;19996;-87
2022/11/05 03:26:35;;;;;;;8.35;3.45;;;8.70;99.90;;;;;;6215625;23;20139;-88
2022/11/05 03:29:24;;;;;;;5.78;2.92;;;8.70;99.90;;;;;;6216708;23;20011;-88
2022/11/05 03:31:52;;;;;;;7.97;2.97;;;8.60;99.90;;;;;;6217921;23;20024;-89
2022/11/05 03:34:25;;;;;;;8.20;3.17;;;8.60;99.90;;;;;;6215755;23;19996;-89
2022/11/05 03:36:53;;;;;;;5.55;3.13;;;8.60;99.90;;;;;;6216184;23;19997;-89
2022/11/05 03:39:36;;;;;;;8.27;3.28;;;8.70;99.90;;;;;;6218455;23;20004;-88
2022/11/05 03:42:07;;;;;;;6.57;3.03;;;8.60;99.90;;;;;;6225988;23;20412;-88
2022/11/05 03:44:39;;;;;;;6.63;3.55;;;8.60;99.90;;;;;;6228059;23;20135;-89
2022/11/05 03:47:10;;;;;;;6.70;3.22;;;8.60;99.90;;;;;;6225603;23;20007;-89
2022/11/05 03:50:12;;;;;;;6.05;3.20;;;8.60;99.90;;;;;;6216461;23;20012;-89
2022/11/05 03:52:46;;;;;;;;;;;8.60;99.90;;;;;;6223180;23;20011;-89
2022/11/05 03:55:15;;;;;;;10.85;5.45;;;8.60;99.90;;;;;;6216469;23;19900;-89
2022/11/05 03:57:52;;;;;;;5.75;3.40;;;8.50;99.90;;;;;;6216204;23;20023;-89
2022/11/05 04:00:23;;;;;;;8.85;3.50;;;8.50;99.90;;;;;;6215954;23;20510;-89
2022/11/05 04:02:49;;;;;;;8.60;4.20;;;8.50;99.90;;;;;;6191576;23;20000;-88
2022/11/05 04:05:18;;;;;;;10.07;3.90;;;8.50;99.90;;;;;;6216182;23;20352;-88
2022/11/05 04:13:37;;;;;;;6.70;4.07;;;8.60;99.90;;;;;;6185035;23;20009;-88
2022/11/05 04:18:47;;;;;;;10.55;4.97;;;8.60;99.90;;;;;;6217655;23;20023;-88
2022/11/05 04:24:10;;;;;;;9.55;4.40;;;8.60;99.90;;;;;;6216697;23;20562;-88
2022/11/05 04:26:46;;;;;;;8.15;3.80;;;8.60;99.90;;;;;;6216151;23;20004;-88
2022/11/05 04:32:03;;;;;;;7.38;3.95;;;8.60;99.90;;;;;;6240716;23;20098;-87
2022/11/05 04:34:29;;;;;;;8.60;4.10;;;8.60;99.90;;;;;;6241420;23;20013;-88
2022/11/05 04:36:54;;;;;;;8.82;4.40;;;8.50;99.90;;;;;;6241176;23;20012;-88
2022/11/05 04:39:23;;;;;;;9.95;4.25;;;8.60;99.90;;;;;;6238138;23;20011;-87
2022/11/05 04:41:48;;;;;;;9.68;4.38;;;8.50;99.90;;;;;;6230347;23;19997;-88
2022/11/05 04:44:15;;;;;;;10.15;4.20;;;8.60;99.90;;;;;;6229238;23;19996;-87
2022/11/05 04:46:41;;;;;;;9.88;4.65;;;8.50;99.90;;;;;;6226499;23;20001;-86
2022/11/05 04:49:07;;;;;;;13.35;4.45;;;8.50;99.90;;;;;;6220270;23;20047;-88
2022/11/05 04:51:32;;;;;;;9.18;4.53;;;8.50;99.90;;;;;;6218133;23;19997;-87
2022/11/05 04:53:59;;;;;;;12.80;6.15;;;8.50;99.90;;;;;;6192789;23;20012;-88
2022/11/05 04:56:25;;;;;;;7.85;4.32;;;8.40;99.90;;;;;;6192649;23;20009;-87
2022/11/05 04:58:51;;;;;;;11.40;4.85;;;8.40;99.90;;;;;;6216570;23;20000;-86
2022/11/05 05:01:22;;;;;;;7.32;4.07;;;8.40;99.90;;;;;;6220242;23;20019;-87
2022/11/05 05:03:52;;;;;;;7.72;4.47;;;8.40;99.90;;;;;;6220408;23;20005;-88
2022/11/05 05:06:19;;;;;;;9.60;4.43;;;8.30;99.90;;;;;;6220225;23;20005;-88
2022/11/05 05:08:52;;;;;;;9.63;5.00;;;8.40;99.90;;;;;;6212507;23;20008;-88
2022/11/05 05:11:22;;;;;;;8.75;4.85;;;8.30;99.90;;;;;;6192040;23;20008;-89
2022/11/05 05:13:51;;;;;;;15.52;5.93;;;8.30;99.90;;;;;;6192294;23;20000;-89
2022/11/05 05:16:23;;;;;;;8.13;4.50;;;8.30;99.90;;;;;;6192401;23;20031;-88
2022/11/05 05:18:49;;;;;;;20.90;5.82;;;8.20;99.90;;;;;;6218952;23;20005;-88
2022/11/05 05:24:01;;;;;;;11.23;5.50;;;8.20;99.90;;;;;;6219851;23;20016;-88
2022/11/05 05:26:26;;;;;;;10.43;5.30;;;8.10;99.90;;;;;;6168808;23;20008;-88
2022/11/05 05:28:56;;;;;;;10.73;5.65;;;8.10;99.90;;;;;;6168862;23;20015;-86
2022/11/05 05:31:27;;;;;;;13.93;5.47;;;8.10;99.90;;;;;;6195213;23;20000;-89
2022/11/05 05:33:56;;;;;;;8.02;5.30;;;8.10;99.90;;;;;;6225136;23;20072;-88
2022/11/05 05:36:24;;;;;;;10.85;5.80;;;8.10;99.90;;;;;;6198655;23;20068;-88
2022/11/05 05:38:50;;;;;;;8.10;5.55;;;8.10;99.90;;;;;;6223837;23;20040;-88
2022/11/05 05:41:16;;;;;;;10.80;5.90;;;8.10;99.90;;;;;;6200305;23;20016;-88
2022/11/05 05:43:51;;;;;;;13.40;6.07;;;8.00;99.90;;;;;;6196669;23;20005;-88
2022/11/05 05:46:18;;;;;;;9.32;6.20;;;8.00;99.90;;;;;;6197084;23;20004;-88
2022/11/05 05:48:49;;;;;;;11.88;6.00;;;7.90;99.90;;;;;;6192094;23;20043;-87
2022/11/05 05:51:20;;;;;;;11.80;5.25;;;7.90;99.90;;;;;;6219391;23;19997;-88
2022/11/05 05:53:48;;;;;;;10.05;5.95;;;7.90;99.90;;;;;;6193050;23;20070;-88
2022/11/05 05:56:18;;;;;;;10.52;5.90;;;7.90;99.90;;;;;;6193256;23;20008;-88
2022/11/05 05:58:44;;;;;;;10.90;6.47;;;7.90;99.90;;;;;;6191844;23;20308;-88
2022/11/05 06:01:12;;;;;;;11.85;6.68;;;7.80;99.90;;;;;;6191482;23;20011;-88
2022/11/05 06:03:43;;;;;;;10.93;5.82;;;7.90;99.90;;;;;;6191981;23;20000;-88
2022/11/05 06:06:13;;;;;;;11.15;6.63;;;7.90;99.90;;;;;;6168204;23;20091;-88
2022/11/05 06:08:47;;;;;;;9.30;5.20;;;7.80;99.90;;;;;;6226224;23;20019;-88
2022/11/05 06:11:13;;;;;;;11.23;6.72;;;7.80;99.90;;;;;;6221848;23;20007;-88
2022/11/05 06:13:39;;;;;;;12.75;6.13;;;7.70;99.90;;;;;;6220720;23;20012;-87
2022/11/05 06:16:07;;;;;;;11.10;6.55;;;7.80;99.90;;;;;;6221415;23;20000;-87
2022/11/05 06:18:34;;;;;;;17.00;8.30;;;7.70;99.90;;;;;;6220861;23;20015;-88
2022/11/05 06:21:09;;;;;;;13.13;6.68;;;7.70;99.90;;;;;;6221742;23;20139;-87
2022/11/05 06:23:37;;;;;;;12.00;7.10;;;7.70;99.90;;;;;;6221741;23;20083;-88
2022/11/05 06:26:05;;;;;;;12.90;7.32;;;7.70;99.90;;;;;;6221060;23;20003;-88
2022/11/05 06:28:33;;;;;;;16.00;8.10;;;7.70;99.90;;;;;;6221269;23;20449;-88
2022/11/05 06:31:00;;;;;;;12.73;7.07;;;7.70;99.90;;;;;;6220904;23;20090;-87
2022/11/05 06:33:26;;;;;;;15.43;7.75;;;7.70;99.90;;;;;;6221337;23;20000;-87
2022/11/05 06:35:55;;;;;;;10.85;7.22;;;7.70;99.90;;;;;;6220566;23;20004;-87
2022/11/05 06:38:21;;;;;;;12.90;8.07;;;7.70;99.90;;;;;;6221080;23;20012;-87
2022/11/05 06:40:47;;;;;;;17.75;7.40;;;7.70;99.90;;;;;;6220628;23;20010;-87
2022/11/05 06:43:12;;;;;;;13.60;7.25;;;7.70;99.90;;;;;;6221141;23;20004;-88
2022/11/05 06:45:38;;;;;;;11.23;7.00;;;7.60;99.90;;;;;;6220436;23;20007;-86
2022/11/05 06:48:04;;;;;;;16.02;7.93;;;7.60;99.90;;;;;;6195775;23;20004;-87
2022/11/05 06:50:30;;;;;;;12.65;7.80;;;7.60;99.90;;;;;;6220284;23;20001;-87
2022/11/05 06:52:57;;;;;;;15.20;8.13;;;7.60;99.90;;;;;;6220449;23;20006;-87
2022/11/05 06:55:27;;;;;;;13.68;7.80;;;7.70;99.90;;;;;;6221210;23;19999;-88
2022/11/05 06:57:54;;;;;;;14.60;8.27;;;7.60;99.90;;;;;;6220716;23;20008;-88
2022/11/05 07:00:20;;;;;;;15.02;8.15;;;7.70;99.90;;;;;;6220661;23;20004;-88
2022/11/05 07:02:46;;;;;;;12.55;8.75;;;7.70;99.90;;;;;;6220590;23;20006;-88
2022/11/05 07:05:12;;;;;;;15.38;8.68;;;7.70;99.90;;;;;;6220824;23;20430;-87
2022/11/05 07:07:42;;;;;;;14.38;8.38;;;7.70;99.90;;;;;;6220104;23;20008;-87
2022/11/05 07:10:14;;;;;;;13.02;7.78;;;7.70;99.90;;;;;;6200022;23;20020;-88
2022/11/05 07:12:40;;;;;;;18.35;8.50;;;7.70;99.90;;;;;;6217945;23;20004;-88
2022/11/05 07:15:10;;;;;;;18.38;8.63;;;7.70;99.90;;;;;;6190477;23;20008;-88
2022/11/05 07:17:38;;;;;;;16.05;8.68;;;7.70;99.90;;;;;;6190284;23;20031;-86
2022/11/05 07:20:06;;;;;;;17.88;10.05;;;7.80;99.90;;;;;;6216265;23;20036;-86
2022/11/05 07:22:34;;;;;;;14.77;8.40;;;7.80;99.90;;;;;;6166429;23;20059;-87
2022/11/05 07:25:00;;;;;;;13.75;8.07;;;7.80;99.90;;;;;;6190675;23;20441;-86
2022/11/05 07:27:28;;;;;;;14.38;8.55;;;7.80;99.90;;;;;;6189388;23;20017;-86
2022/11/05 07:29:55;;;;;;;14.25;8.45;;;7.80;99.90;;;;;;6216136;23;20028;-86
2022/11/05 07:32:25;;;;;;;15.93;8.77;;;7.80;99.90;;;;;;6190808;23;20012;-87
2022/11/05 07:34:51;;;;;;;12.07;8.60;;;7.80;99.90;;;;;;6166709;23;20379;-87
2022/11/05 07:37:27;;;;;;;14.68;8.73;;;7.80;99.90;;;;;;6190487;23;20001;-90
2022/11/05 07:39:54;;;;;;;17.52;9.20;;;7.90;99.90;;;;;;6216845;23;20000;-88
2022/11/05 07:42:20;;;;;;;15.23;10.50;;;7.90;99.90;;;;;;6166190;23;20449;-88
2022/11/05 07:44:45;;;;;;;19.00;10.25;;;7.90;99.90;;;;;;6218193;23;20003;-89
2022/11/05 07:47:11;;;;;;;16.23;9.32;;;7.90;99.90;;;;;;6191783;23;20024;-88
2022/11/05 07:49:39;;;;;;;16.58;9.70;;;7.90;99.90;;;;;;6191147;23;20012;-88
2022/11/05 07:52:05;;;;;;;16.98;10.50;;;7.90;99.90;;;;;;6166242;23;20419;-89
2022/11/05 07:54:33;;;;;;;17.30;10.32;;;7.90;99.90;;;;;;6190390;23;20084;-86
2022/11/05 07:57:01;;;;;;;18.67;9.93;;;7.90;99.90;;;;;;6191293;23;20012;-91
2022/11/05 07:59:26;;;;;;;16.13;9.52;;;7.90;99.90;;;;;;6201200;23;20005;-88
2022/11/05 08:01:54;;;;;;;17.65;10.60;;;7.90;99.90;;;;;;6211971;23;20007;-88
2022/11/05 08:04:27;;;;;;;19.80;9.77;;;8.00;99.90;;;;;;6241048;23;20000;-90
2022/11/05 08:06:56;;;;;;;16.50;10.13;;;8.00;99.90;;;;;;6166996;23;20009;-89
2022/11/05 08:09:22;;;;;;;20.02;11.02;;;8.00;99.90;;;;;;6192713;23;20024;-88
2022/11/05 08:11:48;;;;;;;15.57;10.27;;;8.00;99.90;;;;;;6236452;23;20008;-89
2022/11/05 08:14:22;;;;;;;16.83;10.38;;;8.00;99.90;;;;;;6234963;23;20001;-89
2022/11/05 08:16:50;;;;;;;16.08;10.27;;;8.10;99.90;;;;;;6223641;23;19997;-87
2022/11/05 08:19:18;;;;;;;17.40;9.50;;;8.10;99.90;;;;;;6217807;23;20087;-88
2022/11/05 08:21:47;;;;;;;18.58;10.65;;;8.10;99.90;;;;;;6219487;23;20000;-90
2022/11/05 08:24:15;;;;;;;21.42;10.35;;;8.10;99.90;;;;;;6218849;23;20075;-89
2022/11/05 08:26:41;;;;;;;13.32;10.05;;;8.20;99.90;;;;;;6217783;23;20000;-88
2022/11/05 08:29:09;;;;;;;17.00;10.05;;;8.20;99.90;;;;;;6217007;23;20005;-88
2022/11/05 08:31:36;;;;;;;13.57;9.77;;;8.20;99.90;;;;;;6217037;23;20444;-87
2022/11/05 08:34:01;;;;;;;17.77;10.55;;;8.20;99.90;;;;;;6192656;23;20037;-89
2022/11/05 08:36:27;;;;;;;14.65;9.20;;;8.30;99.90;;;;;;6217401;23;20011;-89
2022/11/05 08:38:55;;;;;;;15.25;10.18;;;8.30;99.90;;;;;;6191797;23;20020;-88
2022/11/05 08:41:21;;;;;;;15.50;9.70;;;8.40;99.90;;;;;;6192300;23;20005;-89
2022/11/05 08:43:58;;;;;;;14.30;9.60;;;8.40;99.90;;;;;;6192651;23;20100;-89
2022/11/05 08:46:24;;;;;;;17.05;9.90;;;8.50;99.90;;;;;;6194404;23;20015;-89
2022/11/05 08:48:52;;;;;;;17.58;11.35;;;8.50;99.90;;;;;;6217651;23;20087;-89
2022/11/05 08:51:20;;;;;;;14.82;9.20;;;8.50;99.90;;;;;;6192793;23;20005;-88
2022/11/05 08:53:48;;;;;;;14.50;9.02;;;8.60;99.90;;;;;;6217561;23;20001;-89
2022/11/05 08:56:14;;;;;;;19.88;9.75;;;8.60;99.90;;;;;;6217486;23;20008;-88
2022/11/05 08:58:42;;;;;;;14.05;9.52;;;8.70;99.90;;;;;;6192525;23;20335;-87
2022/11/05 09:01:14;;;;;;;13.85;8.77;;;8.70;99.90;;;;;;6192150;23;20023;-90
2022/11/05 09:03:50;;;;;;;17.88;9.85;;;8.80;99.90;;;;;;6217497;23;20055;-89
2022/11/05 09:06:24;;;;;;;15.82;9.05;;;8.80;99.90;;;;;;6216918;23;20316;-89
2022/11/05 09:08:55;;;;;;;14.68;8.25;;;8.80;99.90;;;;;;6221750;23;20009;-89
2022/11/05 09:11:23;;;;;;;16.13;8.88;;;8.90;99.90;;;;;;6197819;23;20422;-88
2022/11/05 09:13:55;;;;;;;13.80;7.78;;;9.00;99.90;;;;;;6221862;23;20430;-89
2022/11/05 09:16:27;;;;;;;14.40;8.88;;;9.00;99.90;;;;;;6222270;23;20004;-88
2022/11/05 09:18:55;;;;;;;12.32;8.27;;;9.10;99.90;;;;;;6222944;23;20066;-90
2022/11/05 09:21:23;;;;;;;15.00;9.05;;;9.10;99.90;;;;;;6222218;23;20008;-87
2022/11/05 09:23:53;;;;;;;14.13;8.32;;;9.20;99.90;;;;;;6221898;23;19996;-88
2022/11/05 09:26:26;;;;;;;14.30;8.40;;;9.20;99.90;;;;;;6221188;23;20007;-88
2022/11/05 09:28:54;;;;;;;13.55;7.53;;;9.30;99.90;;;;;;6221724;23;20008;-88
2022/11/05 09:31:19;;;;;;;12.95;7.57;;;9.30;99.90;;;;;;6221894;23;20038;-88
2022/11/05 09:33:45;;;;;;;12.18;7.18;;;9.40;99.90;;;;;;6221511;23;19996;-87
2022/11/05 09:36:11;;;;;;;10.82;6.70;;;9.50;99.90;;;;;;6221543;23;19997;-87
2022/11/05 09:38:42;;;;;;;11.75;6.57;;;9.50;99.90;;;;;;6222184;23;20059;-88
2022/11/05 09:41:22;;;;;;;;;;;9.60;99.90;;;;;;6222334;23;20008;-87
2022/11/05 09:44:02;;;;;;;9.73;6.32;;;9.70;99.90;;;;;;6222287;23;19899;-88
2022/11/05 09:46:40;;;;;;;11.57;6.57;;;9.70;99.90;;;;;;6221994;23;20004;-89
2022/11/05 09:49:21;;;;;;;11.07;6.28;;;9.80;99.90;;;;;;6248629;23;20004;-88
2022/11/05 09:51:49;;;;;;;;;;;9.90;99.90;;;;;;6223000;23;20160;-86
2022/11/05 09:54:24;;;;;;;12.95;6.40;;;10.00;99.90;;;;;;6196837;23;19910;-92
2022/11/05 09:56:54;;;;;;;12.52;6.65;;;10.00;99.90;;;;;;6222704;23;20003;-87
2022/11/05 09:59:37;;;;;;;12.57;7.22;;;10.10;99.90;;;;;;6247911;23;20414;-88
2022/11/05 10:02:31;;;;;;;11.48;6.38;;;10.20;99.90;;;;;;6221440;23;20000;-88
2022/11/05 10:05:01;;;;;;;14.00;7.10;;;10.30;99.90;;;;;;6216745;23;19999;-88
2022/11/05 10:07:39;;;;;;;13.05;7.05;;;10.30;99.90;;;;;;6247634;23;20042;-88
2022/11/05 10:10:07;;;;;;;9.50;6.18;;;10.40;99.90;;;;;;6220413;23;20012;-87
2022/11/05 10:12:40;;;;;;;9.00;6.55;;;10.50;99.90;;;;;;6221372;23;20000;-91
2022/11/05 10:15:37;;;;;;;12.43;6.85;;;10.60;99.90;;;;;;6247995;23;20007;-89
2022/11/05 10:18:27;;;;;;;11.20;6.43;;;10.60;99.90;;;;;;6220455;23;19996;-89
2022/11/05 10:20:55;;;;;;;10.65;5.93;;;10.70;99.90;;;;;;6222299;23;20380;-88
2022/11/05 10:23:24;;;;;;;13.90;6.25;;;10.80;99.90;;;;;;6247242;23;20445;-88
2022/11/05 10:26:12;;;;;;;11.55;5.07;;;10.90;99.90;;;;;;6221419;23;20071;-88
2022/11/05 10:28:51;;;;;;;;;;;;;;;;;;;;;
2022/11/05 10:31:26;;;;;;;9.02;5.00;;;11.10;99.90;;;;;;6248533;23;20044;-88
2022/11/05 10:34:20;;;;;;;10.18;5.40;;;11.20;99.90;;;;;;6222926;23;20027;-88
2022/11/05 10:37:06;;;;;;;8.57;4.90;;;11.30;99.90;;;;;;6248260;23;20406;-88
2022/11/05 10:39:49;;;;;;;9.63;4.95;;;11.40;99.90;;;;;;6221760;23;20023;-89
2022/11/05 10:42:27;;;;;;;10.10;5.25;;;11.50;99.90;;;;;;6220962;23;20006;-89
2022/11/05 10:45:19;;;;;;;8.40;5.28;;;11.70;99.90;;;;;;6221346;23;20007;-89
2022/11/05 10:47:59;;;;;;;9.95;4.95;;;11.80;99.90;;;;;;6220989;23;20368;-88
2022/11/05 10:50:29;;;;;;;9.50;6.28;;;11.90;99.90;;;;;;6196020;23;20004;-88
2022/11/05 10:52:58;;;;;;;8.85;5.10;;;12.00;99.90;;;;;;6221376;23;20001;-88
2022/11/05 10:55:29;;;;;;;9.60;5.43;;;12.10;99.90;;;;;;6220615;23;19996;-89
2022/11/05 10:58:09;;;;;;;11.88;5.05;;;12.20;99.90;;;;;;6247988;23;20050;-89
2022/11/05 11:00:37;;;;;;;10.75;4.90;;;12.20;99.90;;;;;;6220545;23;20023;-88
2022/11/05 11:03:41;;;;;;;12.05;5.18;;;12.20;99.90;;;;;;6248034;23;19996;-88
2022/11/05 11:06:31;;;;;;;9.82;4.47;;;12.30;99.90;;;;;;6221034;23;20004;-91
2022/11/05 11:09:04;;;;;;;11.27;4.68;;;12.30;99.90;;;;;;6221580;23;20008;-89
2022/11/05 11:11:57;;;;;;;9.32;4.78;;;12.40;99.90;;;;;;6220863;23;20046;-91
2022/11/05 11:14:34;;;;;;;13.20;4.72;;;12.40;99.90;;;;;;6221403;23;20004;-90
2022/11/05 11:17:21;;;;;;;9.18;4.60;;;12.40;99.90;;;;;;6248546;23;20027;-91
2022/11/05 11:20:00;;;;;;;;;;;;;;;;;;;;;
2022/11/05 11:22:28;;;;;;;9.52;4.45;;;12.50;99.90;;;;;;6223705;23;20087;-88
2022/11/05 11:24:59;;;;;;;10.00;4.57;;;12.50;99.90;;;;;;6220870;23;20055;-87
2022/11/05 11:27:50;;;;;;;9.38;4.00;;;12.50;99.90;;;;;;6221483;23;20319;-90
2022/11/05 11:30:19;;;;;;;11.05;5.53;;;12.50;99.90;;;;;;6220874;23;20004;-90
2022/11/05 11:32:46;;;;;;;11.23;4.63;;;12.60;99.90;;;;;;6221107;23;19996;-88
2022/11/05 11:35:23;;;;;;;8.02;4.10;;;12.60;99.90;;;;;;6196007;23;20034;-89
2022/11/05 11:37:54;;;;;;;7.95;4.45;;;12.60;99.90;;;;;;6219909;23;20064;-88
2022/11/05 11:40:27;;;;;;;7.28;4.22;;;12.70;99.90;;;;;;6195059;23;20008;-86
2022/11/05 11:43:04;;;;;;;8.80;3.95;;;12.70;99.90;;;;;;6220097;23;20042;-86
2022/11/05 11:45:47;;;;;;;9.32;4.18;;;12.80;99.90;;;;;;6219076;23;20000;-77
2022/11/05 11:48:18;;;;;;;8.75;4.30;;;12.80;99.90;;;;;;6219198;23;20001;-78
2022/11/05 11:50:46;;;;;;;8.13;3.80;;;12.90;99.90;;;;;;6219457;23;20369;-85
2022/11/05 11:53:18;;;;;;;11.27;4.30;;;12.90;99.90;;;;;;6220169;23;20000;-87
2022/11/05 11:56:05;;;;;;;10.57;4.35;;;12.90;99.90;;;;;;6219512;23;20054;-87
2022/11/05 11:58:42;;;;;;;8.82;4.60;;;12.90;99.90;;;;;;6220027;23;20026;-87
2022/11/05 12:01:08;;;;;;;7.45;3.92;;;12.90;99.90;;;;;;6220325;23;20008;-87
2022/11/05 12:03:44;;;;;;;7.32;3.95;;;12.90;99.90;;;;;;6220257;23;20011;-87
2022/11/05 12:06:24;;;;;;;8.55;3.92;;;12.90;99.90;;;;;;6220074;23;19996;-86
2022/11/05 12:09:23;;;;;;;9.98;4.00;;;12.90;99.90;;;;;;6219832;23;20035;-87
2022/11/05 12:12:24;;;;;;;9.05;4.28;;;13.00;99.90;;;;;;6244597;22;20012;-87
2022/11/05 12:15:00;;;;;;;9.85;3.92;;;13.00;99.90;;;;;;6204486;23;20011;-88
2022/11/05 12:17:41;;;;;;;7.35;3.92;;;13.00;99.90;;;;;;6219739;23;20001;-87
2022/11/05 12:20:41;;;;;;;10.98;3.75;;;13.00;99.90;;;;;;6220372;23;20389;-87
2022/11/05 12:23:35;;;;;;;7.47;4.05;;;13.00;99.90;;;;;;6220454;23;20460;-87
2022/11/05 12:26:33;;;;;;;8.65;4.15;;;12.90;99.90;;;;;;6220090;23;20046;-88
2022/11/05 12:29:30;;;;;;;7.57;3.45;;;12.90;99.90;;;;;;6247061;23;20054;-88
2022/11/05 12:32:27;;;;;;;7.20;3.83;;;12.90;99.90;;;;;;6246720;23;20007;-86
2022/11/05 12:35:08;;;;;;;;;;;;;;;;;;;;;
2022/11/05 12:38:19;;;;;;;8.32;4.30;;;13.00;99.90;;;;;;6246870;23;20083;-86
2022/11/05 12:41:26;;;;;;;;;;;;;;;;;;;;;
2022/11/05 12:44:05;;;;;;;7.70;3.92;;;12.90;99.90;;;;;;6124574;23;20073;-86
2022/11/05 12:47:24;;;;;;;7.40;3.90;;;12.90;99.90;;;;;;6124209;23;20041;-87
2022/11/05 12:50:10;;;;;;;9.90;4.25;;;12.90;99.90;;;;;;6238296;23;20031;-87
2022/11/05 12:53:11;;;;;;;8.55;3.78;;;12.90;99.90;;;;;;6220135;23;20008;-86
2022/11/05 12:55:57;;;;;;;7.68;4.22;;;12.90;99.90;;;;;;6220498;23;20003;-87
2022/11/05 12:58:35;;;;;;;8.85;4.47;;;12.90;99.90;;;;;;6220379;23;20362;-87
2022/11/05 13:01:23;;;;;;;;;;;;;;;;;;;;;
2022/11/05 13:04:11;;;;;;;;;;;;;;;;;;;;;
2022/11/05 13:06:46;;;;;;;8.60;4.45;;;12.90;99.90;;;;;;6249319;23;20075;-87
2022/11/05 13:09:18;;;;;;;9.30;4.68;;;12.90;99.90;;;;;;6223434;23;20013;-86
2022/11/05 13:12:28;;;;;;;;;;;;;;;;;;;;;
2022/11/05 13:15:22;;;;;;;8.40;4.50;;;12.90;99.90;;;;;;6220027;23;20427;-87
2022/11/05 13:17:55;;;;;;;9.07;4.18;;;13.00;99.90;;;;;;6241612;23;19981;-88
2022/11/05 13:20:38;;;;;;;12.85;5.35;;;13.00;99.90;;;;;;6215658;23;20090;-87
2022/11/05 13:23:36;;;;;;;11.13;5.03;;;13.00;99.90;;;;;;6217158;23;19995;-88
2022/11/05 13:26:23;;;;;;;10.88;5.43;;;13.00;99.90;;;;;;6217484;23;19988;-90
2022/11/05 13:29:31;;;;;;;;;;;;;;;;;;;;;
2022/11/05 13:32:12;;;;;;;15.90;5.68;;;13.00;99.90;;;;;;6227095;23;19993;-89
2022/11/05 13:34:40;;;;;;;12.18;5.45;;;13.00;99.90;;;;;;6215095;23;20000;-88
2022/11/05 13:39:58;;;;;;;16.55;5.88;;;13.00;99.90;;;;;;6223430;23;20074;-88
2022/11/05 13:42:31;;;;;;;9.98;4.78;;;13.00;99.90;;;;;;6197887;23;20005;-87
2022/11/05 13:45:06;;;;;;;10.30;4.50;;;13.00;99.90;;;;;;6198976;23;20005;-88
2022/11/05 13:48:05;;;;;;;13.48;6.05;;;13.00;99.90;;;;;;6193274;23;20080;-88
2022/11/05 13:51:02;;;;;;;10.80;4.95;;;13.00;99.90;;;;;;6192771;23;20004;-89
2022/11/05 13:53:56;;;;;;;11.07;5.20;;;12.90;99.90;;;;;;6200008;23;20008;-88
2022/11/05 13:56:37;;;;;;;12.48;5.47;;;12.90;99.90;;;;;;6216195;23;19996;-87
2022/11/05 13:59:08;;;;;;;12.00;5.32;;;12.90;99.90;;;;;;6215841;23;20012;-84
2022/11/05 14:02:12;;;;;;;11.65;5.50;;;12.90;99.90;;;;;;6214903;23;20001;-89
2022/11/05 14:04:46;;;;;;;10.80;4.80;;;12.90;99.90;;;;;;6216109;23;20007;-89
2022/11/05 14:07:27;;;;;;;9.95;5.07;;;13.00;99.90;;;;;;6191668;23;20001;-88
2022/11/05 14:10:02;;;;;;;;;;;13.00;99.90;;;;;;6210483;23;20016;-88
2022/11/05 14:12:31;;;;;;;12.00;4.80;;;13.00;99.90;;;;;;6233578;23;20332;-87
2022/11/05 14:15:27;;;;;;;9.93;4.50;;;13.00;99.90;;;;;;6232714;23;19997;-88
2022/11/05 14:17:54;;;;;;;10.32;5.00;;;13.00;99.90;;;;;;6252838;23;20004;-87
2022/11/05 14:20:31;;;;;;;11.63;5.50;;;13.10;99.90;;;;;;6225497;23;20008;-89